sensor_id;sensor_type;location;lat;lon;timestamp;P1;durP1;ratioP1;P2;durP2;ratioP2
76098;SDS011;64828;49.956;8.636;2023-05-20T00:00:06;4.00;;;2.28;;
76098;SDS011;64828;49.956;8.636;2023-05-20T00:00:23;5.15;;;2.20;;
76098;SDS011;64828;49.956;8.636;2023-05-20T00:00:39;4.43;;;2.00;;
76098;SDS011;64828;49.956;8.636;2023-05-20T00:00:55;4.70;;;2.30;;
76098;SDS011;64828;49.956;8.636;2023-05-20T00:01:10;6.47;;;3.10;;
76098;SDS011;64828;49.956;8.636;2023-05-20T00:01:26;4.63;;;2.60;;
76098;SDS011;64828;49.956;8.636;2023-05-20T00:01:42;2.78;;;2.00;;
76098;SDS011;64828;49.956;8.636;2023-05-20T00:01:57;2.93;;;2.10;;
76098;SDS011;64828;49.956;8.636;2023-05-20T00:02:13;3.08;;;2.15;;
76098;SDS011;64828;49.956;8.636;2023-05-20T00:02:29;3.35;;;2.20;;
76098;SDS011;64828;49.956;8.636;2023-05-20T00:02:45;3.20;;;2.03;;
76098;SDS011;64828;49.956;8.636;2023-05-20T00:03:00;2.70;;;1.90;;
76098;SDS011;64828;49.956;8.636;2023-05-20T00:03:16;3.30;;;2.00;;
76098;SDS011;64828;49.956;8.636;2023-05-20T00:03:33;3.30;;;1.95;;
76098;SDS011;64828;49.956;8.636;2023-05-20T00:03:49;3.25;;;1.92;;
76098;SDS011;64828;49.956;8.636;2023-05-20T00:04:05;3.80;;;2.03;;
76098;SDS011;64828;49.956;8.636;2023-05-20T00:04:20;3.33;;;2.00;;
76098;SDS011;64828;49.956;8.636;2023-05-20T00:04:36;3.80;;;2.20;;
76098;SDS011;64828;49.956;8.636;2023-05-20T00:04:52;3.63;;;2.10;;
76098;SDS011;64828;49.956;8.636;2023-05-20T00:05:07;3.22;;;2.20;;
76098;SDS011;64828;49.956;8.636;2023-05-20T00:05:23;5.40;;;2.40;;
76098;SDS011;64828;49.956;8.636;2023-05-20T00:05:39;4.93;;;2.20;;
76098;SDS011;64828;49.956;8.636;2023-05-20T00:05:54;3.57;;;2.20;;
76098;SDS011;64828;49.956;8.636;2023-05-20T00:06:10;5.30;;;2.40;;
76098;SDS011;64828;49.956;8.636;2023-05-20T00:06:26;4.83;;;2.40;;
76098;SDS011;64828;49.956;8.636;2023-05-20T00:06:41;3.90;;;2.30;;
76098;SDS011;64828;49.956;8.636;2023-05-20T00:06:57;3.63;;;2.20;;
76098;SDS011;64828;49.956;8.636;2023-05-20T00:07:12;3.60;;;2.13;;
76098;SDS011;64828;49.956;8.636;2023-05-20T00:07:28;3.75;;;2.15;;
76098;SDS011;64828;49.956;8.636;2023-05-20T00:07:43;3.10;;;2.10;;
76098;SDS011;64828;49.956;8.636;2023-05-20T00:07:59;3.25;;;2.05;;
76098;SDS011;64828;49.956;8.636;2023-05-20T00:08:18;3.45;;;2.15;;
76098;SDS011;64828;49.956;8.636;2023-05-20T00:08:34;3.40;;;2.17;;
76098;SDS011;64828;49.956;8.636;2023-05-20T00:08:49;3.92;;;2.00;;
76098;SDS011;64828;49.956;8.636;2023-05-20T00:09:05;4.67;;;2.10;;
76098;SDS011;64828;49.956;8.636;2023-05-20T00:09:20;4.55;;;2.30;;
76098;SDS011;64828;49.956;8.636;2023-05-20T00:09:37;4.82;;;2.33;;
76098;SDS011;64828;49.956;8.636;2023-05-20T00:09:53;4.72;;;2.47;;
76098;SDS011;64828;49.956;8.636;2023-05-20T00:10:09;3.53;;;2.20;;
76098;SDS011;64828;49.956;8.636;2023-05-20T00:10:25;2.97;;;2.00;;
76098;SDS011;64828;49.956;8.636;2023-05-20T00:10:41;3.10;;;2.03;;
76098;SDS011;64828;49.956;8.636;2023-05-20T00:10:57;3.53;;;2.10;;
76098;SDS011;64828;49.956;8.636;2023-05-20T00:11:12;4.10;;;2.13;;
76098;SDS011;64828;49.956;8.636;2023-05-20T00:11:28;3.60;;;2.10;;
76098;SDS011;64828;49.956;8.636;2023-05-20T00:11:44;3.80;;;2.40;;
76098;SDS011;64828;49.956;8.636;2023-05-20T00:12:00;4.88;;;2.53;;
76098;SDS011;64828;49.956;8.636;2023-05-20T00:12:16;4.35;;;2.10;;
76098;SDS011;64828;49.956;8.636;2023-05-20T00:12:32;3.80;;;2.30;;
76098;SDS011;64828;49.956;8.636;2023-05-20T00:12:49;3.08;;;2.28;;
76098;SDS011;64828;49.956;8.636;2023-05-20T00:13:04;3.43;;;2.20;;
76098;SDS011;64828;49.956;8.636;2023-05-20T00:13:22;4.13;;;2.10;;
76098;SDS011;64828;49.956;8.636;2023-05-20T00:13:38;4.33;;;2.30;;
76098;SDS011;64828;49.956;8.636;2023-05-20T00:13:54;5.18;;;2.40;;
76098;SDS011;64828;49.956;8.636;2023-05-20T00:14:09;4.95;;;2.30;;
76098;SDS011;64828;49.956;8.636;2023-05-20T00:14:25;3.93;;;2.40;;
76098;SDS011;64828;49.956;8.636;2023-05-20T00:14:40;3.70;;;2.40;;
76098;SDS011;64828;49.956;8.636;2023-05-20T00:14:56;4.30;;;2.40;;
76098;SDS011;64828;49.956;8.636;2023-05-20T00:15:12;4.72;;;2.40;;
76098;SDS011;64828;49.956;8.636;2023-05-20T00:15:27;3.80;;;2.20;;
76098;SDS011;64828;49.956;8.636;2023-05-20T00:15:43;3.80;;;2.20;;
76098;SDS011;64828;49.956;8.636;2023-05-20T00:15:59;3.65;;;2.28;;
76098;SDS011;64828;49.956;8.636;2023-05-20T00:16:15;3.70;;;2.50;;
76098;SDS011;64828;49.956;8.636;2023-05-20T00:16:30;3.70;;;2.20;;
76098;SDS011;64828;49.956;8.636;2023-05-20T00:16:46;4.00;;;2.00;;
76098;SDS011;64828;49.956;8.636;2023-05-20T00:17:01;4.30;;;2.17;;
76098;SDS011;64828;49.956;8.636;2023-05-20T00:17:17;3.80;;;2.20;;
76098;SDS011;64828;49.956;8.636;2023-05-20T00:17:34;3.80;;;2.10;;
76098;SDS011;64828;49.956;8.636;2023-05-20T00:17:49;4.20;;;2.17;;
76098;SDS011;64828;49.956;8.636;2023-05-20T00:18:05;4.53;;;2.20;;
76098;SDS011;64828;49.956;8.636;2023-05-20T00:18:21;4.30;;;2.28;;
76098;SDS011;64828;49.956;8.636;2023-05-20T00:18:36;4.10;;;2.40;;
76098;SDS011;64828;49.956;8.636;2023-05-20T00:18:52;4.07;;;2.30;;
76098;SDS011;64828;49.956;8.636;2023-05-20T00:19:08;4.03;;;2.30;;
76098;SDS011;64828;49.956;8.636;2023-05-20T00:19:23;4.10;;;2.30;;
76098;SDS011;64828;49.956;8.636;2023-05-20T00:19:39;3.35;;;2.15;;
76098;SDS011;64828;49.956;8.636;2023-05-20T00:19:54;3.40;;;2.13;;
76098;SDS011;64828;49.956;8.636;2023-05-20T00:20:10;3.80;;;2.17;;
76098;SDS011;64828;49.956;8.636;2023-05-20T00:20:26;3.40;;;2.28;;
76098;SDS011;64828;49.956;8.636;2023-05-20T00:20:42;3.75;;;2.40;;
76098;SDS011;64828;49.956;8.636;2023-05-20T00:20:58;3.63;;;2.30;;
76098;SDS011;64828;49.956;8.636;2023-05-20T00:21:13;3.20;;;2.20;;
76098;SDS011;64828;49.956;8.636;2023-05-20T00:21:29;3.10;;;2.20;;
76098;SDS011;64828;49.956;8.636;2023-05-20T00:21:45;3.42;;;2.20;;
76098;SDS011;64828;49.956;8.636;2023-05-20T00:22:00;3.67;;;2.30;;
76098;SDS011;64828;49.956;8.636;2023-05-20T00:22:16;3.70;;;2.30;;
76098;SDS011;64828;49.956;8.636;2023-05-20T00:22:32;5.15;;;2.25;;
76098;SDS011;64828;49.956;8.636;2023-05-20T00:22:48;4.70;;;2.20;;
76098;SDS011;64828;49.956;8.636;2023-05-20T00:23:03;3.47;;;2.30;;
76098;SDS011;64828;49.956;8.636;2023-05-20T00:23:19;4.97;;;2.28;;
76098;SDS011;64828;49.956;8.636;2023-05-20T00:23:34;5.73;;;2.20;;
76098;SDS011;64828;49.956;8.636;2023-05-20T00:23:50;4.47;;;2.20;;
76098;SDS011;64828;49.956;8.636;2023-05-20T00:24:06;3.50;;;2.07;;
76098;SDS011;64828;49.956;8.636;2023-05-20T00:24:21;4.03;;;2.30;;
76098;SDS011;64828;49.956;8.636;2023-05-20T00:24:38;3.88;;;2.25;;
76098;SDS011;64828;49.956;8.636;2023-05-20T00:24:53;3.40;;;2.07;;
76098;SDS011;64828;49.956;8.636;2023-05-20T00:25:09;3.33;;;2.20;;
76098;SDS011;64828;49.956;8.636;2023-05-20T00:25:25;3.30;;;2.40;;
76098;SDS011;64828;49.956;8.636;2023-05-20T00:25:40;3.70;;;2.30;;
76098;SDS011;64828;49.956;8.636;2023-05-20T00:25:56;4.28;;;2.38;;
76098;SDS011;64828;49.956;8.636;2023-05-20T00:26:11;3.70;;;2.40;;
76098;SDS011;64828;49.956;8.636;2023-05-20T00:26:27;3.22;;;2.13;;
76098;SDS011;64828;49.956;8.636;2023-05-20T00:26:43;4.28;;;2.00;;
76098;SDS011;64828;49.956;8.636;2023-05-20T00:26:59;4.10;;;1.90;;
76098;SDS011;64828;49.956;8.636;2023-05-20T00:27:14;3.42;;;2.13;;
76098;SDS011;64828;49.956;8.636;2023-05-20T00:27:30;4.80;;;2.38;;
76098;SDS011;64828;49.956;8.636;2023-05-20T00:27:46;4.27;;;2.13;;
76098;SDS011;64828;49.956;8.636;2023-05-20T00:28:01;3.33;;;2.03;;
76098;SDS011;64828;49.956;8.636;2023-05-20T00:28:17;3.58;;;2.13;;
76098;SDS011;64828;49.956;8.636;2023-05-20T00:28:33;3.60;;;2.22;;
76098;SDS011;64828;49.956;8.636;2023-05-20T00:28:49;3.38;;;2.20;;
76098;SDS011;64828;49.956;8.636;2023-05-20T00:29:05;4.57;;;2.23;;
76098;SDS011;64828;49.956;8.636;2023-05-20T00:29:20;4.40;;;2.10;;
76098;SDS011;64828;49.956;8.636;2023-05-20T00:29:36;3.47;;;2.10;;
76098;SDS011;64828;49.956;8.636;2023-05-20T00:29:52;3.50;;;2.17;;
76098;SDS011;64828;49.956;8.636;2023-05-20T00:30:08;4.35;;;2.20;;
76098;SDS011;64828;49.956;8.636;2023-05-20T00:30:25;4.82;;;2.30;;
76098;SDS011;64828;49.956;8.636;2023-05-20T00:30:40;4.45;;;2.22;;
76098;SDS011;64828;49.956;8.636;2023-05-20T00:30:56;4.03;;;2.00;;
76098;SDS011;64828;49.956;8.636;2023-05-20T00:31:12;3.28;;;2.00;;
76098;SDS011;64828;49.956;8.636;2023-05-20T00:31:27;3.45;;;2.30;;
76098;SDS011;64828;49.956;8.636;2023-05-20T00:31:43;3.63;;;2.33;;
76098;SDS011;64828;49.956;8.636;2023-05-20T00:31:58;3.78;;;2.20;;
76098;SDS011;64828;49.956;8.636;2023-05-20T00:32:14;3.78;;;2.13;;
76098;SDS011;64828;49.956;8.636;2023-05-20T00:32:30;3.40;;;2.00;;
76098;SDS011;64828;49.956;8.636;2023-05-20T00:32:46;4.07;;;2.10;;
76098;SDS011;64828;49.956;8.636;2023-05-20T00:33:01;4.35;;;2.20;;
76098;SDS011;64828;49.956;8.636;2023-05-20T00:33:17;3.40;;;2.17;;
76098;SDS011;64828;49.956;8.636;2023-05-20T00:33:32;4.57;;;2.20;;
76098;SDS011;64828;49.956;8.636;2023-05-20T00:33:50;4.72;;;2.40;;
76098;SDS011;64828;49.956;8.636;2023-05-20T00:34:05;2.90;;;2.30;;
76098;SDS011;64828;49.956;8.636;2023-05-20T00:34:21;3.25;;;2.47;;
76098;SDS011;64828;49.956;8.636;2023-05-20T00:34:37;3.03;;;2.23;;
76098;SDS011;64828;49.956;8.636;2023-05-20T00:34:59;2.80;;;2.10;;
76098;SDS011;64828;49.956;8.636;2023-05-20T00:35:15;3.33;;;2.35;;
76098;SDS011;64828;49.956;8.636;2023-05-20T00:35:31;4.07;;;2.40;;
76098;SDS011;64828;49.956;8.636;2023-05-20T00:35:47;4.30;;;2.15;;
76098;SDS011;64828;49.956;8.636;2023-05-20T00:36:02;4.77;;;2.17;;
76098;SDS011;64828;49.956;8.636;2023-05-20T00:36:18;4.28;;;2.50;;
76098;SDS011;64828;49.956;8.636;2023-05-20T00:36:34;3.50;;;2.38;;
76098;SDS011;64828;49.956;8.636;2023-05-20T00:36:50;3.22;;;2.20;;
76098;SDS011;64828;49.956;8.636;2023-05-20T00:37:06;4.57;;;2.40;;
76098;SDS011;64828;49.956;8.636;2023-05-20T00:37:21;5.30;;;2.33;;
76098;SDS011;64828;49.956;8.636;2023-05-20T00:37:37;3.60;;;2.30;;
76098;SDS011;64828;49.956;8.636;2023-05-20T00:37:53;3.50;;;2.40;;
76098;SDS011;64828;49.956;8.636;2023-05-20T00:38:08;7.37;;;2.50;;
76098;SDS011;64828;49.956;8.636;2023-05-20T00:38:24;7.40;;;2.58;;
76098;SDS011;64828;49.956;8.636;2023-05-20T00:38:39;4.70;;;2.30;;
76098;SDS011;64828;49.956;8.636;2023-05-20T00:38:55;3.70;;;2.30;;
76098;SDS011;64828;49.956;8.636;2023-05-20T00:39:11;3.70;;;2.30;;
76098;SDS011;64828;49.956;8.636;2023-05-20T00:39:26;3.80;;;2.20;;
76098;SDS011;64828;49.956;8.636;2023-05-20T00:39:44;4.85;;;2.35;;
76098;SDS011;64828;49.956;8.636;2023-05-20T00:39:59;4.87;;;2.53;;
76098;SDS011;64828;49.956;8.636;2023-05-20T00:40:15;3.25;;;2.33;;
76098;SDS011;64828;49.956;8.636;2023-05-20T00:40:31;3.05;;;2.35;;
76098;SDS011;64828;49.956;8.636;2023-05-20T00:40:46;4.20;;;2.50;;
76098;SDS011;64828;49.956;8.636;2023-05-20T00:41:02;4.65;;;2.38;;
76098;SDS011;64828;49.956;8.636;2023-05-20T00:41:17;3.50;;;2.30;;
76098;SDS011;64828;49.956;8.636;2023-05-20T00:41:33;3.40;;;2.35;;
76098;SDS011;64828;49.956;8.636;2023-05-20T00:41:49;3.65;;;2.20;;
76098;SDS011;64828;49.956;8.636;2023-05-20T00:42:05;3.13;;;2.10;;
76098;SDS011;64828;49.956;8.636;2023-05-20T00:42:21;4.13;;;2.20;;
76098;SDS011;64828;49.956;8.636;2023-05-20T00:42:41;4.90;;;2.30;;
76098;SDS011;64828;49.956;8.636;2023-05-20T00:42:57;3.80;;;2.40;;
76098;SDS011;64828;49.956;8.636;2023-05-20T00:43:13;4.10;;;2.50;;
76098;SDS011;64828;49.956;8.636;2023-05-20T00:43:28;4.27;;;2.60;;
76098;SDS011;64828;49.956;8.636;2023-05-20T00:43:44;3.33;;;2.42;;
76098;SDS011;64828;49.956;8.636;2023-05-20T00:43:59;3.07;;;2.20;;
76098;SDS011;64828;49.956;8.636;2023-05-20T00:44:15;3.30;;;2.25;;
76098;SDS011;64828;49.956;8.636;2023-05-20T00:44:32;3.15;;;2.30;;
76098;SDS011;64828;49.956;8.636;2023-05-20T00:44:48;5.30;;;2.50;;
76098;SDS011;64828;49.956;8.636;2023-05-20T00:45:04;5.28;;;2.50;;
76098;SDS011;64828;49.956;8.636;2023-05-20T00:45:20;3.43;;;2.30;;
76098;SDS011;64828;49.956;8.636;2023-05-20T00:45:36;3.45;;;2.30;;
76098;SDS011;64828;49.956;8.636;2023-05-20T00:45:53;3.40;;;2.20;;
76098;SDS011;64828;49.956;8.636;2023-05-20T00:46:09;4.85;;;2.20;;
76098;SDS011;64828;49.956;8.636;2023-05-20T00:46:26;4.43;;;2.55;;
76098;SDS011;64828;49.956;8.636;2023-05-20T00:46:43;3.63;;;2.47;;
76098;SDS011;64828;49.956;8.636;2023-05-20T00:47:02;3.40;;;2.35;;
76098;SDS011;64828;49.956;8.636;2023-05-20T00:47:18;3.33;;;2.30;;
76098;SDS011;64828;49.956;8.636;2023-05-20T00:47:40;4.03;;;2.35;;
76098;SDS011;64828;49.956;8.636;2023-05-20T00:47:57;4.22;;;2.50;;
76098;SDS011;64828;49.956;8.636;2023-05-20T00:48:15;4.25;;;2.30;;
76098;SDS011;64828;49.956;8.636;2023-05-20T00:48:31;4.35;;;2.30;;
76098;SDS011;64828;49.956;8.636;2023-05-20T00:48:56;3.25;;;2.30;;
76098;SDS011;64828;49.956;8.636;2023-05-20T00:49:12;2.92;;;2.17;;
76098;SDS011;64828;49.956;8.636;2023-05-20T00:49:29;3.70;;;2.38;;
76098;SDS011;64828;49.956;8.636;2023-05-20T00:49:45;4.43;;;2.40;;
76098;SDS011;64828;49.956;8.636;2023-05-20T00:50:04;4.60;;;2.60;;
76098;SDS011;64828;49.956;8.636;2023-05-20T00:50:21;4.15;;;2.50;;
76098;SDS011;64828;49.956;8.636;2023-05-20T00:50:37;4.32;;;2.30;;
76098;SDS011;64828;49.956;8.636;2023-05-20T00:50:54;4.78;;;2.35;;
76098;SDS011;64828;49.956;8.636;2023-05-20T00:51:10;4.05;;;2.50;;
76098;SDS011;64828;49.956;8.636;2023-05-20T00:51:28;2.97;;;2.35;;
76098;SDS011;64828;49.956;8.636;2023-05-20T00:51:44;3.08;;;2.30;;
76098;SDS011;64828;49.956;8.636;2023-05-20T00:52:01;3.33;;;2.47;;
76098;SDS011;64828;49.956;8.636;2023-05-20T00:52:17;3.75;;;2.47;;
76098;SDS011;64828;49.956;8.636;2023-05-20T00:52:33;4.10;;;2.40;;
76098;SDS011;64828;49.956;8.636;2023-05-20T00:52:50;4.10;;;2.45;;
76098;SDS011;64828;49.956;8.636;2023-05-20T00:53:09;3.85;;;2.47;;
76098;SDS011;64828;49.956;8.636;2023-05-20T00:53:25;3.75;;;2.35;;
76098;SDS011;64828;49.956;8.636;2023-05-20T00:53:41;4.10;;;2.40;;
76098;SDS011;64828;49.956;8.636;2023-05-20T00:53:57;3.78;;;2.40;;
76098;SDS011;64828;49.956;8.636;2023-05-20T00:54:13;3.50;;;2.33;;
76098;SDS011;64828;49.956;8.636;2023-05-20T00:54:29;3.58;;;2.50;;
76098;SDS011;64828;49.956;8.636;2023-05-20T00:54:45;3.35;;;2.38;;
76098;SDS011;64828;49.956;8.636;2023-05-20T00:55:01;3.55;;;2.30;;
76098;SDS011;64828;49.956;8.636;2023-05-20T00:55:17;4.05;;;2.70;;
76098;SDS011;64828;49.956;8.636;2023-05-20T00:55:33;4.20;;;2.60;;
76098;SDS011;64828;49.956;8.636;2023-05-20T00:55:49;4.43;;;2.40;;
76098;SDS011;64828;49.956;8.636;2023-05-20T00:56:06;3.58;;;2.30;;
76098;SDS011;64828;49.956;8.636;2023-05-20T00:56:22;3.10;;;2.30;;
76098;SDS011;64828;49.956;8.636;2023-05-20T00:56:40;3.30;;;2.42;;
76098;SDS011;64828;49.956;8.636;2023-05-20T00:56:56;3.85;;;2.55;;
76098;SDS011;64828;49.956;8.636;2023-05-20T00:57:13;4.15;;;2.50;;
76098;SDS011;64828;49.956;8.636;2023-05-20T00:57:31;4.38;;;2.47;;
76098;SDS011;64828;49.956;8.636;2023-05-20T00:57:49;4.30;;;2.45;;
76098;SDS011;64828;49.956;8.636;2023-05-20T00:58:07;4.18;;;2.30;;
76098;SDS011;64828;49.956;8.636;2023-05-20T00:58:23;5.07;;;2.42;;
76098;SDS011;64828;49.956;8.636;2023-05-20T00:58:38;5.10;;;2.60;;
76098;SDS011;64828;49.956;8.636;2023-05-20T00:58:54;3.88;;;2.50;;
76098;SDS011;64828;49.956;8.636;2023-05-20T00:59:11;4.95;;;2.42;;
76098;SDS011;64828;49.956;8.636;2023-05-20T00:59:27;4.73;;;2.47;;
76098;SDS011;64828;49.956;8.636;2023-05-20T00:59:42;3.63;;;2.42;;
76098;SDS011;64828;49.956;8.636;2023-05-20T00:59:58;3.83;;;2.50;;
76098;SDS011;64828;49.956;8.636;2023-05-20T01:00:14;4.03;;;2.57;;
76098;SDS011;64828;49.956;8.636;2023-05-20T01:00:30;4.47;;;2.58;;
76098;SDS011;64828;49.956;8.636;2023-05-20T01:00:45;3.75;;;2.38;;
76098;SDS011;64828;49.956;8.636;2023-05-20T01:01:01;3.20;;;2.30;;
76098;SDS011;64828;49.956;8.636;2023-05-20T01:01:17;4.18;;;2.50;;
76098;SDS011;64828;49.956;8.636;2023-05-20T01:01:33;4.40;;;2.42;;
76098;SDS011;64828;49.956;8.636;2023-05-20T01:01:49;4.03;;;2.37;;
76098;SDS011;64828;49.956;8.636;2023-05-20T01:02:05;3.75;;;2.33;;
76098;SDS011;64828;49.956;8.636;2023-05-20T01:02:21;3.30;;;2.28;;
76098;SDS011;64828;49.956;8.636;2023-05-20T01:02:37;3.53;;;2.40;;
76098;SDS011;64828;49.956;8.636;2023-05-20T01:02:54;3.63;;;2.30;;
76098;SDS011;64828;49.956;8.636;2023-05-20T01:03:10;3.33;;;2.42;;
76098;SDS011;64828;49.956;8.636;2023-05-20T01:03:27;3.92;;;2.50;;
76098;SDS011;64828;49.956;8.636;2023-05-20T01:03:43;5.10;;;2.78;;
76098;SDS011;64828;49.956;8.636;2023-05-20T01:03:59;4.50;;;2.58;;
76098;SDS011;64828;49.956;8.636;2023-05-20T01:04:14;3.38;;;2.45;;
76098;SDS011;64828;49.956;8.636;2023-05-20T01:04:30;3.37;;;2.57;;
76098;SDS011;64828;49.956;8.636;2023-05-20T01:04:47;3.40;;;2.50;;
76098;SDS011;64828;49.956;8.636;2023-05-20T01:05:03;3.50;;;2.42;;
76098;SDS011;64828;49.956;8.636;2023-05-20T01:05:19;3.33;;;2.25;;
76098;SDS011;64828;49.956;8.636;2023-05-20T01:05:34;3.03;;;2.20;;
76098;SDS011;64828;49.956;8.636;2023-05-20T01:05:50;3.43;;;2.50;;
76098;SDS011;64828;49.956;8.636;2023-05-20T01:06:06;4.10;;;2.45;;
76098;SDS011;64828;49.956;8.636;2023-05-20T01:06:21;4.70;;;2.50;;
76098;SDS011;64828;49.956;8.636;2023-05-20T01:06:37;4.63;;;2.50;;
76098;SDS011;64828;49.956;8.636;2023-05-20T01:06:54;4.75;;;2.60;;
76098;SDS011;64828;49.956;8.636;2023-05-20T01:07:09;4.30;;;2.60;;
76098;SDS011;64828;49.956;8.636;2023-05-20T01:07:25;4.50;;;2.70;;
76098;SDS011;64828;49.956;8.636;2023-05-20T01:07:41;4.35;;;2.75;;
76098;SDS011;64828;49.956;8.636;2023-05-20T01:07:57;4.03;;;2.70;;
76098;SDS011;64828;49.956;8.636;2023-05-20T01:08:12;3.13;;;2.60;;
76098;SDS011;64828;49.956;8.636;2023-05-20T01:08:28;3.53;;;2.60;;
76098;SDS011;64828;49.956;8.636;2023-05-20T01:08:44;3.60;;;2.67;;
76098;SDS011;64828;49.956;8.636;2023-05-20T01:09:00;3.60;;;2.55;;
76098;SDS011;64828;49.956;8.636;2023-05-20T01:09:15;4.40;;;2.73;;
76098;SDS011;64828;49.956;8.636;2023-05-20T01:09:31;3.95;;;2.55;;
76098;SDS011;64828;49.956;8.636;2023-05-20T01:09:47;3.45;;;2.47;;
76098;SDS011;64828;49.956;8.636;2023-05-20T01:10:03;4.27;;;2.50;;
76098;SDS011;64828;49.956;8.636;2023-05-20T01:10:21;4.82;;;2.47;;
76098;SDS011;64828;49.956;8.636;2023-05-20T01:10:41;3.78;;;2.60;;
76098;SDS011;64828;49.956;8.636;2023-05-20T01:11:08;4.88;;;2.80;;
76098;SDS011;64828;49.956;8.636;2023-05-20T01:11:37;4.15;;;2.42;;
76098;SDS011;64828;49.956;8.636;2023-05-20T01:12:52;4.70;;;2.50;;
76098;SDS011;64828;49.956;8.636;2023-05-20T01:13:12;3.77;;;2.40;;
76098;SDS011;64828;49.956;8.636;2023-05-20T01:13:41;4.55;;;2.60;;
76098;SDS011;64828;49.956;8.636;2023-05-20T01:14:02;3.97;;;2.47;;
76098;SDS011;64828;49.956;8.636;2023-05-20T01:14:22;4.10;;;2.40;;
76098;SDS011;64828;49.956;8.636;2023-05-20T01:14:48;4.35;;;2.40;;
76098;SDS011;64828;49.956;8.636;2023-05-20T01:15:10;4.82;;;2.67;;
76098;SDS011;64828;49.956;8.636;2023-05-20T01:15:29;4.65;;;2.60;;
76098;SDS011;64828;49.956;8.636;2023-05-20T01:15:45;3.92;;;2.45;;
76098;SDS011;64828;49.956;8.636;2023-05-20T01:16:03;4.30;;;2.78;;
76098;SDS011;64828;49.956;8.636;2023-05-20T01:16:21;3.72;;;2.70;;
76098;SDS011;64828;49.956;8.636;2023-05-20T01:16:39;4.10;;;2.50;;
76098;SDS011;64828;49.956;8.636;2023-05-20T01:16:57;4.60;;;2.58;;
76098;SDS011;64828;49.956;8.636;2023-05-20T01:17:23;5.07;;;2.60;;
76098;SDS011;64828;49.956;8.636;2023-05-20T01:17:43;5.30;;;2.60;;
76098;SDS011;64828;49.956;8.636;2023-05-20T01:18:02;4.20;;;2.50;;
76098;SDS011;64828;49.956;8.636;2023-05-20T01:18:22;4.30;;;2.40;;
76098;SDS011;64828;49.956;8.636;2023-05-20T01:18:45;4.22;;;2.50;;
76098;SDS011;64828;49.956;8.636;2023-05-20T01:19:02;3.63;;;2.53;;
76098;SDS011;64828;49.956;8.636;2023-05-20T01:20:00;4.55;;;2.58;;
76098;SDS011;64828;49.956;8.636;2023-05-20T01:20:16;5.50;;;2.78;;
76098;SDS011;64828;49.956;8.636;2023-05-20T01:20:34;4.82;;;2.70;;
76098;SDS011;64828;49.956;8.636;2023-05-20T01:20:52;4.22;;;2.70;;
76098;SDS011;64828;49.956;8.636;2023-05-20T01:21:15;4.72;;;2.55;;
76098;SDS011;64828;49.956;8.636;2023-05-20T01:21:32;3.95;;;2.50;;
76098;SDS011;64828;49.956;8.636;2023-05-20T01:21:49;4.15;;;2.55;;
76098;SDS011;64828;49.956;8.636;2023-05-20T01:22:11;4.03;;;2.70;;
76098;SDS011;64828;49.956;8.636;2023-05-20T01:22:28;4.65;;;2.80;;
76098;SDS011;64828;49.956;8.636;2023-05-20T01:22:54;4.38;;;2.72;;
76098;SDS011;64828;49.956;8.636;2023-05-20T01:23:11;3.45;;;2.70;;
76098;SDS011;64828;49.956;8.636;2023-05-20T01:24:00;4.38;;;2.60;;
76098;SDS011;64828;49.956;8.636;2023-05-20T01:24:08;3.90;;;2.63;;
76098;SDS011;64828;49.956;8.636;2023-05-20T01:24:24;3.97;;;2.50;;
76098;SDS011;64828;49.956;8.636;2023-05-20T01:24:40;4.37;;;2.50;;
76098;SDS011;64828;49.956;8.636;2023-05-20T01:25:07;3.78;;;2.60;;
76098;SDS011;64828;49.956;8.636;2023-05-20T01:25:23;4.72;;;3.00;;
76098;SDS011;64828;49.956;8.636;2023-05-20T01:25:40;5.20;;;2.90;;
76098;SDS011;64828;49.956;8.636;2023-05-20T01:25:56;4.25;;;2.70;;
76098;SDS011;64828;49.956;8.636;2023-05-20T01:26:11;3.97;;;2.78;;
76098;SDS011;64828;49.956;8.636;2023-05-20T01:26:27;4.40;;;2.72;;
76098;SDS011;64828;49.956;8.636;2023-05-20T01:26:43;4.87;;;2.80;;
76098;SDS011;64828;49.956;8.636;2023-05-20T01:27:02;4.50;;;2.80;;
76098;SDS011;64828;49.956;8.636;2023-05-20T01:27:19;3.90;;;2.63;;
76098;SDS011;64828;49.956;8.636;2023-05-20T01:27:36;4.05;;;2.60;;
76098;SDS011;64828;49.956;8.636;2023-05-20T01:27:53;4.50;;;2.58;;
76098;SDS011;64828;49.956;8.636;2023-05-20T01:28:11;3.30;;;2.47;;
76098;SDS011;64828;49.956;8.636;2023-05-20T01:28:35;4.18;;;2.70;;
76098;SDS011;64828;49.956;8.636;2023-05-20T01:28:53;4.13;;;2.80;;
76098;SDS011;64828;49.956;8.636;2023-05-20T01:29:11;4.15;;;2.78;;
76098;SDS011;64828;49.956;8.636;2023-05-20T01:29:27;5.30;;;2.83;;
76098;SDS011;64828;49.956;8.636;2023-05-20T01:29:43;5.20;;;3.00;;
76098;SDS011;64828;49.956;8.636;2023-05-20T01:29:59;3.47;;;2.70;;
76098;SDS011;64828;49.956;8.636;2023-05-20T01:30:15;3.72;;;2.75;;
76098;SDS011;64828;49.956;8.636;2023-05-20T01:30:34;3.97;;;2.78;;
76098;SDS011;64828;49.956;8.636;2023-05-20T01:30:58;3.20;;;2.40;;
76098;SDS011;64828;49.956;8.636;2023-05-20T01:31:20;4.07;;;2.67;;
76098;SDS011;64828;49.956;8.636;2023-05-20T01:31:44;4.30;;;2.72;;
76098;SDS011;64828;49.956;8.636;2023-05-20T01:32:03;4.20;;;2.70;;
76098;SDS011;64828;49.956;8.636;2023-05-20T01:32:41;5.13;;;2.80;;
76098;SDS011;64828;49.956;8.636;2023-05-20T01:33:06;4.95;;;3.00;;
76098;SDS011;64828;49.956;8.636;2023-05-20T01:33:26;4.65;;;2.83;;
76098;SDS011;64828;49.956;8.636;2023-05-20T01:33:45;5.30;;;2.92;;
76098;SDS011;64828;49.956;8.636;2023-05-20T01:34:08;4.53;;;2.80;;
76098;SDS011;64828;49.956;8.636;2023-05-20T01:34:25;3.90;;;2.70;;
76098;SDS011;64828;49.956;8.636;2023-05-20T01:34:41;4.07;;;2.70;;
76098;SDS011;64828;49.956;8.636;2023-05-20T01:34:59;4.40;;;2.88;;
76098;SDS011;64828;49.956;8.636;2023-05-20T01:35:16;4.40;;;3.10;;
76098;SDS011;64828;49.956;8.636;2023-05-20T01:35:32;4.57;;;2.97;;
76098;SDS011;64828;49.956;8.636;2023-05-20T01:35:49;4.85;;;3.00;;
76098;SDS011;64828;49.956;8.636;2023-05-20T01:36:06;5.82;;;2.70;;
76098;SDS011;64828;49.956;8.636;2023-05-20T01:36:23;4.50;;;2.75;;
76098;SDS011;64828;49.956;8.636;2023-05-20T01:36:42;5.40;;;2.80;;
76098;SDS011;64828;49.956;8.636;2023-05-20T01:37:01;4.85;;;2.60;;
76098;SDS011;64828;49.956;8.636;2023-05-20T01:37:20;3.90;;;2.50;;
76098;SDS011;64828;49.956;8.636;2023-05-20T01:37:39;4.18;;;2.70;;
76098;SDS011;64828;49.956;8.636;2023-05-20T01:37:56;4.60;;;2.95;;
76098;SDS011;64828;49.956;8.636;2023-05-20T01:38:13;4.78;;;2.92;;
76098;SDS011;64828;49.956;8.636;2023-05-20T01:38:33;5.05;;;2.88;;
76098;SDS011;64828;49.956;8.636;2023-05-20T01:38:50;5.35;;;2.67;;
76098;SDS011;64828;49.956;8.636;2023-05-20T01:39:08;5.38;;;2.80;;
76098;SDS011;64828;49.956;8.636;2023-05-20T01:39:24;4.25;;;2.88;;
76098;SDS011;64828;49.956;8.636;2023-05-20T01:39:41;4.15;;;2.90;;
76098;SDS011;64828;49.956;8.636;2023-05-20T01:39:59;3.92;;;2.80;;
76098;SDS011;64828;49.956;8.636;2023-05-20T01:40:15;3.80;;;2.78;;
76098;SDS011;64828;49.956;8.636;2023-05-20T01:40:32;3.75;;;2.78;;
76098;SDS011;64828;49.956;8.636;2023-05-20T01:40:48;3.83;;;2.80;;
76098;SDS011;64828;49.956;8.636;2023-05-20T01:41:06;3.58;;;2.72;;
76098;SDS011;64828;49.956;8.636;2023-05-20T01:41:22;4.00;;;2.80;;
76098;SDS011;64828;49.956;8.636;2023-05-20T01:41:40;5.15;;;2.90;;
76098;SDS011;64828;49.956;8.636;2023-05-20T01:41:57;4.85;;;2.80;;
76098;SDS011;64828;49.956;8.636;2023-05-20T01:42:16;4.13;;;2.53;;
76098;SDS011;64828;49.956;8.636;2023-05-20T01:42:34;4.30;;;2.58;;
76098;SDS011;64828;49.956;8.636;2023-05-20T01:42:51;4.20;;;2.67;;
76098;SDS011;64828;49.956;8.636;2023-05-20T01:43:09;4.22;;;2.80;;
76098;SDS011;64828;49.956;8.636;2023-05-20T01:43:26;4.13;;;2.90;;
76098;SDS011;64828;49.956;8.636;2023-05-20T01:43:43;4.07;;;2.70;;